createdAt,value
2022-08-05T00:00:11.583Z,19.9
2022-08-05T00:03:19.748Z,20
2022-08-05T00:06:40.369Z,19.9
2022-08-05T00:09:21.487Z,19.9
2022-08-05T00:12:18.974Z,19.9
2022-08-05T00:18:23.970Z,19.8
2022-08-05T00:21:14.338Z,19.8
2022-08-05T00:24:35.730Z,19.8
2022-08-05T00:27:21.117Z,19.8
2022-08-05T00:30:17.975Z,19.6
2022-08-05T00:39:15.826Z,19.4
2022-08-05T00:42:10.863Z,19.4
2022-08-05T00:45:15.564Z,19.4
2022-08-05T00:48:15.954Z,19.4
2022-08-05T00:51:57.547Z,19.3
2022-08-05T00:54:15.720Z,19.3
2022-08-05T00:57:09.238Z,19.3
2022-08-05T01:00:15.501Z,19.3
2022-08-05T01:03:25.153Z,19.2
2022-08-05T01:06:20.867Z,19.2
2022-08-05T01:09:13.412Z,19.1
2022-08-05T01:12:31.833Z,19.1
2022-08-05T01:15:52.767Z,19.1
2022-08-05T01:18:13.703Z,19.1
2022-08-05T01:21:14.085Z,19.1
2022-08-05T01:24:26.278Z,19.1
2022-08-05T01:27:28.888Z,19.2
2022-08-05T01:30:36.586Z,19.3
2022-08-05T01:33:10.808Z,19.3
2022-08-05T01:36:18.475Z,19.3
2022-08-05T01:39:12.864Z,19.2
2022-08-05T01:42:11.851Z,19.2
2022-08-05T01:45:18.571Z,19.2
2022-08-05T01:48:16.505Z,19.2
2022-08-05T01:51:21.609Z,19.2
2022-08-05T01:54:20.096Z,19.2
2022-08-05T02:00:16.828Z,19.1
2022-08-05T02:03:34.496Z,19.1
2022-08-05T02:06:49.999Z,19
2022-08-05T02:09:10.100Z,19
2022-08-05T02:12:12.430Z,18.9
2022-08-05T02:15:21.890Z,18.8
2022-08-05T02:18:50.418Z,18.8
2022-08-05T02:21:17.769Z,18.8
2022-08-05T02:24:13.718Z,18.8
2022-08-05T02:27:19.095Z,18.8
2022-08-05T02:30:11.169Z,18.7
2022-08-05T02:33:13.231Z,18.6
2022-08-05T02:36:17.467Z,18.6
2022-08-05T02:39:13.360Z,18.6
2022-08-05T02:42:30.840Z,18.6
2022-08-05T02:45:12.455Z,18.6
2022-08-05T02:48:31.470Z,18.6
2022-08-05T02:51:10.737Z,18.6
2022-08-05T02:54:50.611Z,18.6
2022-08-05T03:00:11.190Z,18.6
2022-08-05T03:03:18.829Z,18.6
2022-08-05T03:09:17.880Z,18.6
2022-08-05T03:12:12.087Z,18.5
2022-08-05T03:15:14.661Z,18.5
2022-08-05T03:18:11.989Z,18.5
2022-08-05T03:21:11.051Z,18.4
2022-08-05T03:24:15.520Z,18.4
2022-08-05T03:27:14.177Z,18.3
2022-08-05T03:30:17.728Z,18.3
2022-08-05T03:33:10.092Z,18.3
2022-08-05T03:36:16.391Z,18.3
2022-08-05T03:39:26.648Z,18.3
2022-08-05T03:42:11.600Z,18.3
2022-08-05T03:45:59.224Z,18.3
2022-08-05T03:48:13.213Z,18.3
2022-08-05T03:57:29.143Z,18.1
2022-08-05T04:00:15.450Z,18.1
2022-08-05T04:03:26.864Z,18
2022-08-05T04:06:12.918Z,18.1
2022-08-05T04:09:10.621Z,18.1
2022-08-05T04:12:27.810Z,18.1
2022-08-05T04:15:17.670Z,18.1
2022-08-05T04:18:14.742Z,17.9
2022-08-05T04:21:13.347Z,17.9
2022-08-05T04:24:29.764Z,17.8
2022-08-05T04:27:11.829Z,18
2022-08-05T04:30:13.510Z,17.9
2022-08-05T04:33:12.446Z,17.9
2022-08-05T04:36:56.888Z,17.9
2022-08-05T04:39:10.275Z,17.8
2022-08-05T04:42:13.722Z,17.8
2022-08-05T04:45:22.860Z,17.8
2022-08-05T04:48:29.159Z,17.8
2022-08-05T04:51:20.166Z,17.8
2022-08-05T04:54:14.318Z,17.9
2022-08-05T04:57:09.501Z,17.9
2022-08-05T05:00:09.697Z,17.9
2022-08-05T05:03:13.401Z,18
2022-08-05T05:09:20.519Z,18.1
2022-08-05T05:12:13.698Z,18.1
2022-08-05T05:18:10.498Z,18.1
2022-08-05T05:21:11.879Z,18.2
2022-08-05T05:24:21.880Z,18.3
2022-08-05T05:27:10.800Z,18.3
2022-08-05T05:30:35.723Z,18.4
2022-08-05T05:36:09.548Z,18.4
2022-08-05T05:39:16.437Z,18.5
2022-08-05T05:42:09.293Z,18.6
2022-08-05T05:45:16.188Z,18.5
2022-08-05T05:48:29.423Z,18.8
2022-08-05T05:51:24.708Z,19.3
2022-08-05T05:54:19.598Z,19.6
2022-08-05T05:57:21.636Z,19.8
2022-08-05T06:00:14.415Z,20.1
2022-08-05T06:06:11.469Z,20.3
2022-08-05T06:09:52.810Z,20.2
2022-08-05T06:12:17.745Z,20
2022-08-05T06:16:27.919Z,19.9
2022-08-05T06:18:11.613Z,19.6
2022-08-05T06:21:23.000Z,19.4
2022-08-05T06:24:14.708Z,19.3
2022-08-05T06:30:31.608Z,19.1
2022-08-05T06:33:33.068Z,19
2022-08-05T06:36:27.960Z,18.9
2022-08-05T06:39:11.635Z,18.9
2022-08-05T06:42:10.695Z,18.9
2022-08-05T06:51:32.078Z,18.8
2022-08-05T06:54:20.188Z,18.8
2022-08-05T07:00:14.642Z,18.8
2022-08-05T07:03:14.201Z,18.7
2022-08-05T07:06:24.922Z,18.8
2022-08-05T07:09:16.042Z,18.6
2022-08-05T07:12:11.001Z,18.6
2022-08-05T07:16:00.694Z,18.6
2022-08-05T07:18:35.363Z,18.6
2022-08-05T07:21:27.740Z,18.7
2022-08-05T07:24:17.735Z,18.7
2022-08-05T07:27:16.657Z,18.8
2022-08-05T07:30:52.997Z,18.9
2022-08-05T07:33:21.343Z,19
2022-08-05T07:36:31.861Z,19.1
2022-08-05T07:42:46.119Z,19.7
2022-08-05T07:45:14.620Z,19.8
2022-08-05T07:48:13.005Z,19.7
2022-08-05T07:51:53.233Z,19.6
2022-08-05T07:54:14.877Z,19.8
2022-08-05T08:00:16.703Z,20.5
2022-08-05T08:03:53.435Z,20.6
2022-08-05T08:06:12.323Z,20.8
2022-08-05T08:09:09.883Z,20.8
2022-08-05T08:12:55.080Z,21.1
2022-08-05T08:18:25.492Z,22.5
2022-08-05T08:21:23.884Z,22.9
2022-08-05T08:24:22.326Z,23.3
2022-08-05T08:27:20.917Z,22.8
2022-08-05T08:30:54.594Z,22.3
2022-08-05T08:33:21.388Z,21.9
2022-08-05T08:39:21.595Z,21.4
2022-08-05T08:43:21.138Z,21.2
2022-08-05T08:45:38.004Z,20.9
2022-08-05T08:54:10.703Z,22.4
2022-08-05T08:57:15.659Z,23.2
2022-08-05T09:00:19.373Z,22.9
2022-08-05T09:03:11.314Z,23.3
2022-08-05T09:06:32.778Z,24
2022-08-05T09:09:11.638Z,25.5
2022-08-05T09:12:35.835Z,26.2
2022-08-05T09:15:22.390Z,26.1
2022-08-05T09:18:13.244Z,26.1
2022-08-05T09:24:14.556Z,25.6
2022-08-05T09:30:27.706Z,24.1
2022-08-05T09:33:17.435Z,23.5
2022-08-05T09:36:35.739Z,23.1
2022-08-05T09:39:55.954Z,23.3
2022-08-05T09:42:23.760Z,24.9
2022-08-05T09:48:09.554Z,26.9
2022-08-05T09:51:21.868Z,26.4
2022-08-05T09:54:10.087Z,26.4
2022-08-05T09:57:28.011Z,25.4
2022-08-05T10:00:18.698Z,24.5
2022-08-05T10:03:10.317Z,23.9
2022-08-05T10:06:26.836Z,23.3
2022-08-05T10:09:47.004Z,22.9
2022-08-05T10:12:55.023Z,22.4
2022-08-05T10:15:12.972Z,22.2
2022-08-05T10:18:11.321Z,22.1
2022-08-05T10:21:27.284Z,22
2022-08-05T10:24:19.379Z,21.7
2022-08-05T10:27:18.846Z,21.5
2022-08-05T10:33:21.009Z,21.2
2022-08-05T10:36:10.613Z,20.9
2022-08-05T10:42:13.561Z,20.6
2022-08-05T10:45:45.167Z,20.4
2022-08-05T10:51:53.185Z,20.2
2022-08-05T10:54:55.929Z,20.3
2022-08-05T10:57:12.918Z,20.1
2022-08-05T11:00:32.031Z,20.3
2022-08-05T11:03:38.933Z,20.4
2022-08-05T11:06:20.240Z,20.4
2022-08-05T11:09:16.534Z,20.6
2022-08-05T11:12:11.313Z,20.7
2022-08-05T11:18:18.738Z,21.8
2022-08-05T11:21:18.200Z,21.9
2022-08-05T11:27:10.605Z,21.5
2022-08-05T11:30:12.634Z,21.2
2022-08-05T11:33:48.052Z,21.2
2022-08-05T11:36:42.935Z,21
2022-08-05T11:39:10.184Z,20.8
2022-08-05T11:42:22.655Z,20.5
2022-08-05T11:45:26.868Z,20.6
2022-08-05T11:48:13.617Z,20.6
2022-08-05T11:51:13.013Z,20.6
2022-08-05T11:54:16.008Z,20.6
2022-08-05T12:00:09.877Z,20.3
2022-08-05T12:03:10.202Z,20.1
2022-08-05T12:06:14.168Z,20.1
2022-08-05T12:09:09.626Z,19.9
2022-08-05T12:12:11.879Z,19.8
2022-08-05T12:15:38.838Z,19.4
2022-08-05T12:18:24.179Z,19.3
2022-08-05T12:21:13.623Z,19.2
2022-08-05T12:24:19.286Z,19.3
2022-08-05T12:27:55.125Z,19.4
2022-08-05T12:30:17.695Z,19.4
2022-08-05T12:33:48.638Z,19.1
2022-08-05T12:36:13.137Z,19
2022-08-05T12:39:13.035Z,18.9
2022-08-05T12:42:16.770Z,18.8
2022-08-05T12:45:13.164Z,18.8
2022-08-05T12:48:39.724Z,18.8
2022-08-05T12:54:28.936Z,18.8
2022-08-05T12:57:15.170Z,18.9
2022-08-05T13:03:17.117Z,18.6
2022-08-05T13:06:13.791Z,18.8
2022-08-05T13:09:10.785Z,18.8
2022-08-05T13:12:19.099Z,18.8
2022-08-05T13:15:54.831Z,18.8
2022-08-05T13:18:12.096Z,18.5
2022-08-05T13:21:11.641Z,18.4
2022-08-05T13:24:51.305Z,18.3
2022-08-05T13:27:35.340Z,18.3
2022-08-05T13:30:51.094Z,18.4
2022-08-05T13:33:10.891Z,18.4
2022-08-05T13:36:18.766Z,18.4
2022-08-05T13:42:16.424Z,18.6
2022-08-05T13:45:14.887Z,18.9
2022-08-05T13:51:11.632Z,18.8
2022-08-05T13:54:26.875Z,18.5
2022-08-05T13:57:12.245Z,18.3
2022-08-05T14:00:15.201Z,18.3
2022-08-05T14:03:10.601Z,18.3
2022-08-05T14:06:38.710Z,18.3
2022-08-05T14:09:18.301Z,18.3
2022-08-05T14:12:42.782Z,18.5
2022-08-05T14:18:23.142Z,18.5
2022-08-05T14:24:09.520Z,18.5
2022-08-05T14:27:33.143Z,18.6
2022-08-05T14:30:27.947Z,18.6
2022-08-05T14:33:10.204Z,18.6
2022-08-05T14:36:12.883Z,18.6
2022-08-05T14:39:29.482Z,18.6
2022-08-05T14:42:31.989Z,18.6
2022-08-05T14:45:13.240Z,18.6
2022-08-05T14:48:42.561Z,18.8
2022-08-05T14:51:22.141Z,18.8
2022-08-05T14:57:21.929Z,19
2022-08-05T15:00:12.527Z,19.1
2022-08-05T15:03:16.051Z,19.3
2022-08-05T15:06:34.520Z,19.4
2022-08-05T15:09:19.461Z,19.6
2022-08-05T15:12:20.741Z,19.7
2022-08-05T15:15:56.494Z,19.9
2022-08-05T15:18:19.546Z,20.1
2022-08-05T15:21:23.245Z,20.1
2022-08-05T15:24:09.941Z,19.8
2022-08-05T15:27:13.744Z,19.8
2022-08-05T15:30:09.522Z,19.6
2022-08-05T15:33:12.040Z,19.4
2022-08-05T15:36:29.842Z,19.4
2022-08-05T15:45:12.078Z,19.4
2022-08-05T15:48:16.081Z,19.3
2022-08-05T15:51:15.429Z,19.3
2022-08-05T15:54:19.530Z,19.3
2022-08-05T15:57:14.357Z,19.3
2022-08-05T16:00:11.337Z,19.4
2022-08-05T16:03:11.960Z,19.8
2022-08-05T16:06:13.596Z,20.1
2022-08-05T16:09:14.018Z,20.1
2022-08-05T16:12:09.329Z,20.1
2022-08-05T16:15:11.616Z,19.9
2022-08-05T16:18:19.714Z,19.8
2022-08-05T16:21:15.806Z,19.8
2022-08-05T16:24:53.900Z,19.7
2022-08-05T16:27:17.888Z,19.8
2022-08-05T16:30:26.580Z,20
2022-08-05T16:33:09.627Z,20.1
2022-08-05T16:36:12.943Z,20.1
2022-08-05T16:39:13.879Z,20.1
2022-08-05T16:42:36.244Z,20.2
2022-08-05T16:48:33.670Z,20.1
2022-08-05T16:51:17.832Z,20.1
2022-08-05T16:54:37.381Z,20.1
2022-08-05T16:57:59.976Z,20.1
2022-08-05T17:00:40.096Z,20
2022-08-05T17:03:23.783Z,20.1
2022-08-05T17:06:09.275Z,20.3
2022-08-05T17:09:10.678Z,20.4
2022-08-05T17:12:09.738Z,20.4
2022-08-05T17:15:15.370Z,20.4
2022-08-05T17:18:21.027Z,20.3
2022-08-05T17:21:12.683Z,19.9
2022-08-05T17:27:09.214Z,19.6
2022-08-05T17:30:31.046Z,19.6
2022-08-05T17:33:12.867Z,19.4
2022-08-05T17:36:48.320Z,19.1
2022-08-05T17:39:36.853Z,19.1
2022-08-05T17:42:53.756Z,19
2022-08-05T17:45:40.453Z,18.9
2022-08-05T17:48:09.288Z,18.9
2022-08-05T17:51:23.920Z,18.8
2022-08-05T17:54:10.150Z,18.8
2022-08-05T17:57:21.435Z,18.9
2022-08-05T18:00:20.783Z,18.9
2022-08-05T18:03:12.237Z,18.9
2022-08-05T18:06:17.793Z,18.9
2022-08-05T18:09:21.390Z,18.8
2022-08-05T18:12:24.657Z,18.8
2022-08-05T18:15:13.788Z,18.8
2022-08-05T18:18:21.060Z,18.8
2022-08-05T18:22:07.990Z,18.7
2022-08-05T18:24:14.654Z,18.6
2022-08-05T18:27:21.001Z,18.5
2022-08-05T18:30:11.442Z,18.4
2022-08-05T18:33:13.424Z,18.2
2022-08-05T18:36:32.567Z,18.1
2022-08-05T18:42:21.296Z,17.8
2022-08-05T18:45:13.897Z,17.7
2022-08-05T18:48:33.085Z,17.6
2022-08-05T18:54:10.974Z,17.4
2022-08-05T18:57:17.764Z,17.2
2022-08-05T19:00:36.836Z,17.1
2022-08-05T19:03:17.967Z,17.2
2022-08-05T19:06:50.524Z,17.2
2022-08-05T19:09:11.537Z,17.1
2022-08-05T19:12:14.863Z,17.1
2022-08-05T19:18:29.747Z,17.1
2022-08-05T19:21:16.408Z,17.1
2022-08-05T19:24:38.586Z,16.9
2022-08-05T19:27:15.585Z,17.1
2022-08-05T19:30:14.159Z,17.1
2022-08-05T19:33:48.036Z,17.1
2022-08-05T19:36:17.179Z,17.1
2022-08-05T19:39:13.345Z,17
2022-08-05T19:42:38.686Z,16.9
2022-08-05T19:45:16.729Z,16.9
2022-08-05T19:48:16.688Z,16.8
2022-08-05T19:54:36.849Z,16.5
2022-08-05T19:57:21.740Z,16.4
2022-08-05T20:00:16.636Z,16.4
2022-08-05T20:03:15.704Z,16.4
2022-08-05T20:06:48.772Z,16.3
2022-08-05T20:09:23.684Z,16.1
2022-08-05T20:12:13.782Z,16.1
2022-08-05T20:15:15.687Z,16
2022-08-05T20:18:38.471Z,15.9
2022-08-05T20:21:11.356Z,15.8
2022-08-05T20:24:13.640Z,15.7
2022-08-05T20:27:26.358Z,15.6
2022-08-05T20:30:12.553Z,15.5
2022-08-05T20:33:09.214Z,15.4
2022-08-05T20:36:12.234Z,15.3
2022-08-05T20:39:16.549Z,15.2
2022-08-05T20:42:13.692Z,15.1
2022-08-05T20:45:12.425Z,15.1
2022-08-05T20:48:16.201Z,15.1
2022-08-05T20:51:19.843Z,14.9
2022-08-05T20:54:18.371Z,14.9
2022-08-05T20:57:42.459Z,14.8
2022-08-05T21:03:12.694Z,14.7
2022-08-05T21:06:32.549Z,14.7
2022-08-05T21:09:12.778Z,14.6
2022-08-05T21:12:28.206Z,14.5
2022-08-05T21:15:11.498Z,14.4
2022-08-05T21:18:13.361Z,14.3
2022-08-05T21:21:11.525Z,14.3
2022-08-05T21:24:19.448Z,14.1
2022-08-05T21:27:11.420Z,14.1
2022-08-05T21:30:19.720Z,13.9
2022-08-05T21:33:42.625Z,13.8
2022-08-05T21:36:10.599Z,13.8
2022-08-05T21:39:16.465Z,13.7
2022-08-05T21:42:47.181Z,13.7
2022-08-05T21:45:38.112Z,13.6
2022-08-05T21:48:18.574Z,13.4
2022-08-05T21:54:15.853Z,13.2
2022-08-05T21:57:48.640Z,13.1
2022-08-05T22:00:21.191Z,13.2
2022-08-05T22:03:12.231Z,13.1
2022-08-05T22:06:12.602Z,13.1
2022-08-05T22:09:48.399Z,13.1
2022-08-05T22:12:19.598Z,12.9
2022-08-05T22:15:11.752Z,12.6
2022-08-05T22:18:11.114Z,12.5
2022-08-05T22:21:27.852Z,12.4
2022-08-05T22:24:58.055Z,12.2
2022-08-05T22:27:21.775Z,12.2
2022-08-05T22:30:13.154Z,12.2
2022-08-05T22:34:00.794Z,12.2
2022-08-05T22:36:17.008Z,12.3
2022-08-05T22:39:23.574Z,12.1
2022-08-05T22:42:45.677Z,11.9
2022-08-05T22:45:12.558Z,11.8
2022-08-05T22:48:12.032Z,11.8
2022-08-05T22:54:10.509Z,11.6
2022-08-05T22:57:10.818Z,11.4
2022-08-05T23:00:12.222Z,11.3
2022-08-05T23:03:17.932Z,11.2
2022-08-05T23:06:14.450Z,11.1
2022-08-05T23:12:10.958Z,11.1
2022-08-05T23:15:18.928Z,11.1
2022-08-05T23:18:27.153Z,11.1
2022-08-05T23:21:18.632Z,11.3
2022-08-05T23:24:21.418Z,11.3
2022-08-05T23:27:10.723Z,11.3
2022-08-05T23:30:15.142Z,11.3
2022-08-05T23:33:19.094Z,11.4
2022-08-05T23:36:13.434Z,11.5
2022-08-05T23:39:16.455Z,11.6
2022-08-05T23:42:16.784Z,11.6
2022-08-05T23:45:18.527Z,11.4
2022-08-05T23:48:15.828Z,11.4
2022-08-05T23:51:11.763Z,11.4
2022-08-05T23:54:17.262Z,11.4
2022-08-05T23:57:13.540Z,11.5
